HESH/SSH METAR and TAF weather

Enter ICAO airport designator
Station Type Date Time Source
HESH METAR 2018/12/10 20:00 UTC NOAA

HESH 102000Z 28004KT CAVOK 18/08 Q1018 NOSIG


Station Type Date Time Source
HESH Decoded METAR 2018/12/10 20:00 UTC NOAA

Sharm El Sheikhintl, Egypt (HESH) 27-58N 034-23E
Dec 10, 2018 - 03:00 PM EST / 2018.12.10 2000 UTC
Wind: from the W (280 degrees) at 5 MPH (4 KT):0
Visibility: greater than 7 mile(s):0
Temperature: 64 F (18 C)
Dew Point: 46 F (8 C)
Relative Humidity: 51%
Pressure (altimeter): 30.06 in. Hg (1018 hPa)
ob: HESH 102000Z 28004KT CAVOK 18/08 Q1018 NOSIG
cycle: 20

Station Type Date Time Source
HESH TAF 2018/12/10 18:48 UTC NOAA

TAF HESH 101700Z 1018/1124 35010KT CAVOK


Example: see airport list